sensor_id;sensor_type;location;lat;lon;timestamp;P1;durP1;ratioP1;P2;durP2;ratioP2
67986;SDS011;54767;53.800;15.956;2023-06-10T18:09:52;7.70;;;4.40;;
67986;SDS011;54767;53.800;15.956;2023-06-10T18:13:40;9.30;;;3.60;;
67986;SDS011;54767;53.800;15.956;2023-06-10T18:16:45;7.10;;;4.60;;
67986;SDS011;54767;53.800;15.956;2023-06-10T18:19:28;7.40;;;5.00;;
67986;SDS011;54767;53.800;15.956;2023-06-10T18:22:39;10.50;;;5.60;;
67986;SDS011;54767;53.800;15.956;2023-06-10T18:25:43;8.70;;;6.80;;
67986;SDS011;54767;53.800;15.956;2023-06-10T18:28:19;4.20;;;2.70;;
67986;SDS011;54767;53.800;15.956;2023-06-10T18:31:06;4.80;;;3.80;;
67986;SDS011;54767;53.800;15.956;2023-06-10T18:33:49;6.60;;;3.70;;
67986;SDS011;54767;53.800;15.956;2023-06-10T18:36:45;4.40;;;3.40;;
67986;SDS011;54767;53.800;15.956;2023-06-10T18:39:16;14.80;;;13.30;;
67986;SDS011;54767;53.800;15.956;2023-06-10T18:42:17;10.10;;;7.70;;
67986;SDS011;54767;53.800;15.956;2023-06-10T18:44:47;7.30;;;5.40;;
67986;SDS011;54767;53.800;15.956;2023-06-10T18:47:48;8.40;;;7.50;;
67986;SDS011;54767;53.800;15.956;2023-06-10T18:50:26;8.60;;;7.80;;
67986;SDS011;54767;53.800;15.956;2023-06-10T18:53:24;8.70;;;6.30;;
67986;SDS011;54767;53.800;15.956;2023-06-10T18:55:53;11.80;;;9.60;;
67986;SDS011;54767;53.800;15.956;2023-06-10T18:58:22;3.50;;;3.10;;
67986;SDS011;54767;53.800;15.956;2023-06-10T19:00:51;3.70;;;2.80;;
67986;SDS011;54767;53.800;15.956;2023-06-10T19:03:20;4.00;;;3.60;;
67986;SDS011;54767;53.800;15.956;2023-06-10T19:06:16;5.10;;;3.20;;
67986;SDS011;54767;53.800;15.956;2023-06-10T19:09:11;5.50;;;3.60;;
67986;SDS011;54767;53.800;15.956;2023-06-10T19:12:10;5.90;;;4.00;;
67986;SDS011;54767;53.800;15.956;2023-06-10T19:15:20;4.10;;;3.50;;
67986;SDS011;54767;53.800;15.956;2023-06-10T19:17:49;8.80;;;5.20;;
67986;SDS011;54767;53.800;15.956;2023-06-10T19:20:24;6.00;;;4.80;;
67986;SDS011;54767;53.800;15.956;2023-06-10T19:23:09;7.20;;;4.10;;
67986;SDS011;54767;53.800;15.956;2023-06-10T19:25:41;4.40;;;3.00;;
67986;SDS011;54767;53.800;15.956;2023-06-10T19:28:41;4.80;;;2.70;;
67986;SDS011;54767;53.800;15.956;2023-06-10T19:31:31;2.70;;;2.50;;
67986;SDS011;54767;53.800;15.956;2023-06-10T19:34:22;4.80;;;2.60;;
67986;SDS011;54767;53.800;15.956;2023-06-10T19:36:51;4.70;;;2.50;;
67986;SDS011;54767;53.800;15.956;2023-06-10T19:39:21;4.20;;;2.90;;
67986;SDS011;54767;53.800;15.956;2023-06-10T19:41:52;4.60;;;2.70;;
67986;SDS011;54767;53.800;15.956;2023-06-10T19:44:24;8.20;;;2.90;;
67986;SDS011;54767;53.800;15.956;2023-06-10T19:47:13;4.40;;;2.40;;
67986;SDS011;54767;53.800;15.956;2023-06-10T19:49:43;3.90;;;2.50;;
67986;SDS011;54767;53.800;15.956;2023-06-10T19:52:14;2.60;;;2.30;;
67986;SDS011;54767;53.800;15.956;2023-06-10T19:54:45;5.10;;;2.80;;
67986;SDS011;54767;53.800;15.956;2023-06-10T20:00:04;3.00;;;2.30;;
67986;SDS011;54767;53.800;15.956;2023-06-10T20:02:39;3.50;;;2.30;;
67986;SDS011;54767;53.800;15.956;2023-06-10T20:05:28;5.40;;;3.10;;
67986;SDS011;54767;53.800;15.956;2023-06-10T20:07:57;4.80;;;2.70;;
67986;SDS011;54767;53.800;15.956;2023-06-10T20:10:43;2.90;;;2.60;;
67986;SDS011;54767;53.800;15.956;2023-06-10T20:13:33;3.30;;;2.40;;
67986;SDS011;54767;53.800;15.956;2023-06-10T20:19:14;4.30;;;2.60;;
67986;SDS011;54767;53.800;15.956;2023-06-10T20:21:46;5.60;;;2.40;;
67986;SDS011;54767;53.800;15.956;2023-06-10T20:24:18;3.40;;;2.30;;
67986;SDS011;54767;53.800;15.956;2023-06-10T20:26:49;3.80;;;2.40;;
67986;SDS011;54767;53.800;15.956;2023-06-10T20:29:29;4.20;;;2.50;;
67986;SDS011;54767;53.800;15.956;2023-06-10T20:32:02;5.00;;;2.70;;
67986;SDS011;54767;53.800;15.956;2023-06-10T20:34:34;2.60;;;2.40;;
67986;SDS011;54767;53.800;15.956;2023-06-10T20:37:28;4.20;;;2.60;;
67986;SDS011;54767;53.800;15.956;2023-06-10T20:40:02;7.10;;;3.20;;
67986;SDS011;54767;53.800;15.956;2023-06-10T20:42:41;3.90;;;3.00;;
67986;SDS011;54767;53.800;15.956;2023-06-10T20:45:11;3.50;;;2.50;;
67986;SDS011;54767;53.800;15.956;2023-06-10T20:47:43;7.30;;;2.50;;
67986;SDS011;54767;53.800;15.956;2023-06-10T20:50:15;4.80;;;2.80;;
67986;SDS011;54767;53.800;15.956;2023-06-10T20:52:46;3.60;;;2.60;;
67986;SDS011;54767;53.800;15.956;2023-06-10T20:55:24;7.10;;;2.40;;
67986;SDS011;54767;53.800;15.956;2023-06-10T20:58:30;4.30;;;2.30;;
67986;SDS011;54767;53.800;15.956;2023-06-10T21:01:05;4.70;;;2.60;;
67986;SDS011;54767;53.800;15.956;2023-06-10T21:03:52;6.20;;;2.20;;
67986;SDS011;54767;53.800;15.956;2023-06-10T21:06:44;4.10;;;2.00;;
67986;SDS011;54767;53.800;15.956;2023-06-10T21:09:59;4.70;;;2.30;;
67986;SDS011;54767;53.800;15.956;2023-06-10T21:12:30;3.70;;;2.30;;
67986;SDS011;54767;53.800;15.956;2023-06-10T21:15:06;3.80;;;2.40;;
67986;SDS011;54767;53.800;15.956;2023-06-10T21:17:47;5.20;;;2.20;;
67986;SDS011;54767;53.800;15.956;2023-06-10T21:20:18;3.40;;;2.40;;
67986;SDS011;54767;53.800;15.956;2023-06-10T21:23:02;8.00;;;2.50;;
67986;SDS011;54767;53.800;15.956;2023-06-10T21:25:36;4.50;;;2.40;;
67986;SDS011;54767;53.800;15.956;2023-06-10T21:28:20;2.80;;;2.50;;
67986;SDS011;54767;53.800;15.956;2023-06-10T21:30:57;2.80;;;2.40;;
67986;SDS011;54767;53.800;15.956;2023-06-10T21:33:36;4.30;;;2.50;;
67986;SDS011;54767;53.800;15.956;2023-06-10T21:36:31;5.70;;;2.30;;
67986;SDS011;54767;53.800;15.956;2023-06-10T21:39:04;3.00;;;2.40;;
67986;SDS011;54767;53.800;15.956;2023-06-10T21:41:55;4.00;;;2.40;;
67986;SDS011;54767;53.800;15.956;2023-06-10T21:44:33;2.70;;;2.30;;
67986;SDS011;54767;53.800;15.956;2023-06-10T21:47:06;4.10;;;2.50;;
67986;SDS011;54767;53.800;15.956;2023-06-10T21:49:45;3.50;;;2.50;;
67986;SDS011;54767;53.800;15.956;2023-06-10T21:52:17;4.30;;;2.40;;
67986;SDS011;54767;53.800;15.956;2023-06-10T21:55:08;3.60;;;2.20;;
67986;SDS011;54767;53.800;15.956;2023-06-10T21:57:48;4.30;;;2.50;;
67986;SDS011;54767;53.800;15.956;2023-06-10T22:00:16;4.00;;;2.50;;
67986;SDS011;54767;53.800;15.956;2023-06-10T22:02:54;7.20;;;2.50;;
67986;SDS011;54767;53.800;15.956;2023-06-10T22:05:23;5.70;;;2.40;;
67986;SDS011;54767;53.800;15.956;2023-06-10T22:07:52;7.50;;;2.90;;
67986;SDS011;54767;53.800;15.956;2023-06-10T22:10:20;5.70;;;2.50;;
67986;SDS011;54767;53.800;15.956;2023-06-10T22:12:50;3.90;;;2.20;;
67986;SDS011;54767;53.800;15.956;2023-06-10T22:15:19;3.30;;;2.00;;
67986;SDS011;54767;53.800;15.956;2023-06-10T22:17:48;3.20;;;2.50;;
67986;SDS011;54767;53.800;15.956;2023-06-10T22:20:17;3.20;;;2.40;;
67986;SDS011;54767;53.800;15.956;2023-06-10T22:22:46;3.50;;;2.50;;
67986;SDS011;54767;53.800;15.956;2023-06-10T22:25:14;7.10;;;2.40;;
67986;SDS011;54767;53.800;15.956;2023-06-10T22:27:43;3.10;;;2.40;;
67986;SDS011;54767;53.800;15.956;2023-06-10T22:30:11;3.20;;;2.10;;
67986;SDS011;54767;53.800;15.956;2023-06-10T22:32:40;2.40;;;2.10;;
67986;SDS011;54767;53.800;15.956;2023-06-10T22:35:09;2.50;;;2.30;;
67986;SDS011;54767;53.800;15.956;2023-06-10T22:37:39;4.40;;;2.50;;
67986;SDS011;54767;53.800;15.956;2023-06-10T22:40:08;4.40;;;2.20;;
67986;SDS011;54767;53.800;15.956;2023-06-10T22:42:37;4.70;;;2.10;;
67986;SDS011;54767;53.800;15.956;2023-06-10T22:45:05;3.50;;;2.40;;
67986;SDS011;54767;53.800;15.956;2023-06-10T22:47:35;2.60;;;2.00;;
67986;SDS011;54767;53.800;15.956;2023-06-10T22:50:04;4.90;;;2.20;;
67986;SDS011;54767;53.800;15.956;2023-06-10T22:52:33;3.60;;;2.20;;
67986;SDS011;54767;53.800;15.956;2023-06-10T22:55:01;2.30;;;2.10;;
67986;SDS011;54767;53.800;15.956;2023-06-10T22:57:30;5.40;;;2.40;;
67986;SDS011;54767;53.800;15.956;2023-06-10T22:59:58;4.80;;;2.40;;
67986;SDS011;54767;53.800;15.956;2023-06-10T23:02:27;3.60;;;2.30;;
67986;SDS011;54767;53.800;15.956;2023-06-10T23:04:56;4.80;;;2.20;;
67986;SDS011;54767;53.800;15.956;2023-06-10T23:07:25;4.20;;;2.20;;
67986;SDS011;54767;53.800;15.956;2023-06-10T23:09:53;2.90;;;2.30;;
67986;SDS011;54767;53.800;15.956;2023-06-10T23:12:22;2.90;;;2.00;;
67986;SDS011;54767;53.800;15.956;2023-06-10T23:14:50;4.40;;;2.60;;
67986;SDS011;54767;53.800;15.956;2023-06-10T23:17:18;5.10;;;2.20;;
67986;SDS011;54767;53.800;15.956;2023-06-10T23:22:18;4.10;;;2.20;;
67986;SDS011;54767;53.800;15.956;2023-06-10T23:24:46;5.20;;;2.30;;
67986;SDS011;54767;53.800;15.956;2023-06-10T23:27:16;5.30;;;2.20;;
67986;SDS011;54767;53.800;15.956;2023-06-10T23:29:48;3.60;;;2.20;;
67986;SDS011;54767;53.800;15.956;2023-06-10T23:32:20;4.30;;;2.40;;
67986;SDS011;54767;53.800;15.956;2023-06-10T23:34:49;5.50;;;2.60;;
67986;SDS011;54767;53.800;15.956;2023-06-10T23:37:17;3.40;;;2.10;;
67986;SDS011;54767;53.800;15.956;2023-06-10T23:39:47;5.80;;;2.30;;
67986;SDS011;54767;53.800;15.956;2023-06-10T23:42:16;2.30;;;2.10;;
67986;SDS011;54767;53.800;15.956;2023-06-10T23:44:45;6.10;;;2.60;;
67986;SDS011;54767;53.800;15.956;2023-06-10T23:47:14;3.50;;;2.30;;
67986;SDS011;54767;53.800;15.956;2023-06-10T23:49:42;3.80;;;2.30;;
67986;SDS011;54767;53.800;15.956;2023-06-10T23:52:10;3.80;;;2.40;;
67986;SDS011;54767;53.800;15.956;2023-06-10T23:54:40;3.40;;;2.40;;
67986;SDS011;54767;53.800;15.956;2023-06-10T23:57:08;2.40;;;2.20;;
67986;SDS011;54767;53.800;15.956;2023-06-10T23:59:37;2.60;;;2.20;;
